createdAt,value
2022-09-21T00:00:33.907Z,9.1
2022-09-21T00:01:33.974Z,9.1
2022-09-21T00:02:33.929Z,9
2022-09-21T00:03:33.948Z,9
2022-09-21T00:04:34.045Z,9.1
2022-09-21T00:05:33.936Z,9.1
2022-09-21T00:06:33.911Z,9.1
2022-09-21T00:07:33.915Z,9.1
2022-09-21T00:08:33.894Z,9.1
2022-09-21T00:09:33.956Z,9.1
2022-09-21T00:10:33.948Z,9.1
2022-09-21T00:11:33.955Z,9.1
2022-09-21T00:12:34.045Z,9.1
2022-09-21T00:13:33.903Z,9.1
2022-09-21T00:14:33.886Z,9.2
2022-09-21T00:15:33.918Z,9.2
2022-09-21T00:16:33.953Z,9.2
2022-09-21T00:17:34.014Z,9.2
2022-09-21T00:18:33.883Z,9.2
2022-09-21T00:19:34.025Z,9.1
2022-09-21T00:20:33.967Z,9.1
2022-09-21T00:21:33.963Z,9
2022-09-21T00:22:33.890Z,9
2022-09-21T00:23:34.013Z,9
2022-09-21T00:24:33.894Z,9
2022-09-21T00:25:33.922Z,9
2022-09-21T00:26:33.892Z,9
2022-09-21T00:27:33.948Z,9
2022-09-21T00:28:33.934Z,9.1
2022-09-21T00:29:33.886Z,9.2
2022-09-21T00:30:33.906Z,9.1
2022-09-21T00:31:33.951Z,9.1
2022-09-21T00:32:33.896Z,9.1
2022-09-21T00:33:33.917Z,9
2022-09-21T00:34:33.928Z,8.9
2022-09-21T00:35:34.021Z,8.8
2022-09-21T00:36:33.895Z,8.9
2022-09-21T00:37:33.939Z,8.9
2022-09-21T00:38:33.894Z,8.9
2022-09-21T00:39:33.958Z,8.8
2022-09-21T00:40:33.928Z,8.8
2022-09-21T00:41:33.900Z,8.8
2022-09-21T00:42:33.977Z,8.6
2022-09-21T00:43:33.973Z,8.6
2022-09-21T00:44:33.992Z,8.6
2022-09-21T00:45:34.034Z,8.5
2022-09-21T00:46:33.912Z,8.5
2022-09-21T00:47:33.898Z,8.5
2022-09-21T00:48:33.955Z,8.6
2022-09-21T00:49:33.909Z,8.6
2022-09-21T00:50:33.950Z,8.6
2022-09-21T00:51:33.971Z,8.5
2022-09-21T00:52:33.903Z,8.5
2022-09-21T00:53:33.901Z,8.4
2022-09-21T00:54:33.893Z,8.4
2022-09-21T00:55:33.903Z,8.4
2022-09-21T00:56:33.901Z,8.4
2022-09-21T00:57:33.903Z,8.4
2022-09-21T00:58:33.943Z,8.4
2022-09-21T00:59:33.896Z,8.4
2022-09-21T01:00:33.898Z,8.3
2022-09-21T01:01:33.895Z,8.4
2022-09-21T01:02:34.001Z,8.4
2022-09-21T01:03:33.902Z,8.5
2022-09-21T01:04:33.926Z,8.6
2022-09-21T01:05:33.946Z,8.6
2022-09-21T01:06:33.955Z,8.5
2022-09-21T01:07:33.895Z,8.5
2022-09-21T01:08:33.938Z,8.5
2022-09-21T01:09:33.925Z,8.4
2022-09-21T01:10:33.898Z,8.4
2022-09-21T01:11:33.947Z,8.4
2022-09-21T01:12:33.911Z,8.3
2022-09-21T01:13:33.946Z,8.2
2022-09-21T01:14:33.989Z,8.1
2022-09-21T01:15:33.905Z,8.1
2022-09-21T01:16:33.953Z,8.1
2022-09-21T01:17:33.903Z,8.1
2022-09-21T01:18:33.993Z,8.1
2022-09-21T01:19:33.907Z,8.1
2022-09-21T01:20:33.922Z,8.1
2022-09-21T01:21:34.148Z,8.1
2022-09-21T01:22:34.016Z,8.1
2022-09-21T01:23:34.031Z,8
2022-09-21T01:24:34.085Z,8
2022-09-21T01:25:34.209Z,8
2022-09-21T01:26:33.921Z,8
2022-09-21T01:27:33.976Z,8
2022-09-21T01:28:33.897Z,8
2022-09-21T01:29:33.950Z,8.1
2022-09-21T01:30:34.082Z,8
2022-09-21T01:31:33.926Z,8.1
2022-09-21T01:32:33.917Z,8.1
2022-09-21T01:33:33.899Z,8.1
2022-09-21T01:34:33.905Z,8.2
2022-09-21T01:35:33.894Z,8.2
2022-09-21T01:36:33.905Z,8.2
2022-09-21T01:37:33.941Z,8.3
2022-09-21T01:38:33.907Z,8.2
2022-09-21T01:39:33.901Z,8.2
2022-09-21T01:40:35.829Z,8.3
2022-09-21T01:41:33.944Z,8.3
2022-09-21T01:42:33.922Z,8.3
2022-09-21T01:43:33.896Z,8.3
2022-09-21T01:44:33.971Z,8.3
2022-09-21T01:45:34.326Z,8.3
2022-09-21T01:46:33.903Z,8.2
2022-09-21T01:47:33.894Z,8.2
2022-09-21T01:48:33.898Z,8.3
2022-09-21T01:49:33.985Z,8.3
2022-09-21T01:50:33.891Z,8.3
2022-09-21T01:51:33.890Z,8.3
2022-09-21T01:52:33.951Z,8.3
2022-09-21T01:53:33.986Z,8.4
2022-09-21T01:54:33.921Z,8.4
2022-09-21T01:55:33.924Z,8.4
2022-09-21T01:56:33.930Z,8.5
2022-09-21T01:57:33.917Z,8.5
2022-09-21T01:58:34.053Z,8.4
2022-09-21T01:59:33.904Z,8.4
2022-09-21T02:00:33.972Z,8.3
2022-09-21T02:01:33.966Z,8.3
2022-09-21T02:02:33.894Z,8.3
2022-09-21T02:03:33.918Z,8.3
2022-09-21T02:04:33.891Z,8.3
2022-09-21T02:05:33.892Z,8.3
2022-09-21T02:06:33.895Z,8.3
2022-09-21T02:07:33.899Z,8.4
2022-09-21T02:08:33.941Z,8.3
2022-09-21T02:09:33.909Z,8.4
2022-09-21T02:10:33.914Z,8.4
2022-09-21T02:11:33.891Z,8.4
2022-09-21T02:12:33.966Z,8.5
2022-09-21T02:13:33.885Z,8.6
2022-09-21T02:14:33.895Z,8.5
2022-09-21T02:15:33.946Z,8.5
2022-09-21T02:16:33.981Z,8.4
2022-09-21T02:17:33.893Z,8.4
2022-09-21T02:18:33.946Z,8.3
2022-09-21T02:19:33.902Z,8.3
2022-09-21T02:20:33.885Z,8.2
2022-09-21T02:21:33.894Z,8.2
2022-09-21T02:22:33.904Z,8.1
2022-09-21T02:23:33.948Z,8.1
2022-09-21T02:24:33.952Z,8.1
2022-09-21T02:25:33.901Z,8.1
2022-09-21T02:26:33.902Z,8
2022-09-21T02:27:33.912Z,8
2022-09-21T02:28:33.905Z,8
2022-09-21T02:29:33.900Z,8.1
2022-09-21T02:30:33.908Z,8
2022-09-21T02:31:33.962Z,8
2022-09-21T02:32:33.998Z,8
2022-09-21T02:33:33.894Z,8.1
2022-09-21T02:34:33.902Z,8.1
2022-09-21T02:35:33.902Z,8.2
2022-09-21T02:36:33.913Z,8.1
2022-09-21T02:37:33.995Z,8.1
2022-09-21T02:38:33.903Z,8.2
2022-09-21T02:39:34.007Z,8.1
2022-09-21T02:40:34.034Z,8.2
2022-09-21T02:41:33.917Z,8.1
2022-09-21T02:42:33.896Z,8.1
2022-09-21T02:43:33.932Z,8.1
2022-09-21T02:44:33.902Z,8.2
2022-09-21T02:45:33.903Z,8.2
2022-09-21T02:46:33.947Z,8.1
2022-09-21T02:47:33.980Z,8.1
2022-09-21T02:48:33.904Z,8.2
2022-09-21T02:49:33.897Z,8.2
2022-09-21T02:50:33.988Z,8.1
2022-09-21T02:51:33.903Z,8.1
2022-09-21T02:52:33.910Z,8.1
2022-09-21T02:53:33.902Z,8.1
2022-09-21T02:54:33.961Z,8
2022-09-21T02:55:33.952Z,7.9
2022-09-21T02:56:33.904Z,7.8
2022-09-21T02:57:33.913Z,7.8
2022-09-21T02:58:33.905Z,7.7
2022-09-21T02:59:33.894Z,7.7
2022-09-21T03:00:33.953Z,7.6
2022-09-21T03:01:33.995Z,7.6
2022-09-21T03:02:33.942Z,7.6
2022-09-21T03:03:33.957Z,7.5
2022-09-21T03:04:33.899Z,7.5
2022-09-21T03:05:33.904Z,7.5
2022-09-21T03:06:33.911Z,7.4
2022-09-21T03:07:34.019Z,7.4
2022-09-21T03:08:33.951Z,7.3
2022-09-21T03:09:33.998Z,7.3
2022-09-21T03:10:33.950Z,7.2
2022-09-21T03:11:33.992Z,7.2
2022-09-21T03:12:34.098Z,7.1
2022-09-21T03:13:34.091Z,7.1
2022-09-21T03:14:34.166Z,7.1
2022-09-21T03:15:34.085Z,7.1
2022-09-21T03:16:33.894Z,7
2022-09-21T03:17:33.941Z,7
2022-09-21T03:18:33.969Z,7
2022-09-21T03:19:33.902Z,7
2022-09-21T03:20:33.910Z,7
2022-09-21T03:21:33.902Z,7.1
2022-09-21T03:22:33.973Z,7.1
2022-09-21T03:23:33.924Z,7.2
2022-09-21T03:24:33.913Z,7.2
2022-09-21T03:25:33.967Z,7.3
2022-09-21T03:26:34.027Z,7.3
2022-09-21T03:27:33.899Z,7.3
2022-09-21T03:28:33.899Z,7.3
2022-09-21T03:29:33.905Z,7.3
2022-09-21T03:30:33.923Z,7.2
2022-09-21T03:31:33.938Z,7.2
2022-09-21T03:32:33.908Z,7.2
2022-09-21T03:33:33.958Z,7.1
2022-09-21T03:34:34.004Z,7.2
2022-09-21T03:35:33.914Z,7.2
2022-09-21T03:36:33.956Z,7.2
2022-09-21T03:37:36.094Z,7.2
2022-09-21T03:38:33.894Z,7.1
2022-09-21T03:39:33.991Z,7
2022-09-21T03:40:33.974Z,7.1
2022-09-21T03:41:33.954Z,7.1
2022-09-21T03:42:33.942Z,7.1
2022-09-21T03:43:33.900Z,7.1
2022-09-21T03:44:34.018Z,7.1
2022-09-21T03:45:33.895Z,7.1
2022-09-21T03:46:33.904Z,7.1
2022-09-21T03:47:33.913Z,7.1
2022-09-21T03:48:33.899Z,7
2022-09-21T03:49:34.068Z,7
2022-09-21T03:50:33.983Z,6.9
2022-09-21T03:51:33.905Z,6.9
2022-09-21T03:52:33.913Z,6.9
2022-09-21T03:53:33.939Z,6.9
2022-09-21T03:54:33.904Z,7
2022-09-21T03:55:33.902Z,7.1
2022-09-21T03:56:33.989Z,7.1
2022-09-21T03:57:33.971Z,7.2
2022-09-21T03:58:33.898Z,7.2
2022-09-21T03:59:33.902Z,7.1
2022-09-21T04:00:33.903Z,7.2
2022-09-21T04:01:34.053Z,7.2
2022-09-21T04:02:33.977Z,7.2
2022-09-21T04:03:33.906Z,7.2
2022-09-21T04:04:34.037Z,7.3
2022-09-21T04:05:34.049Z,7.2
2022-09-21T04:06:33.933Z,7.2
2022-09-21T04:07:33.910Z,7.1
2022-09-21T04:08:33.907Z,7.1
2022-09-21T04:09:33.912Z,7
2022-09-21T04:10:33.960Z,6.9
2022-09-21T04:11:33.904Z,6.8
2022-09-21T04:12:33.952Z,6.8
2022-09-21T04:13:33.989Z,6.8
2022-09-21T04:14:33.902Z,6.9
2022-09-21T04:15:33.936Z,6.8
2022-09-21T04:16:33.895Z,6.9
2022-09-21T04:17:33.907Z,6.9
2022-09-21T04:18:33.949Z,6.9
2022-09-21T04:19:33.952Z,7
2022-09-21T04:20:33.983Z,7
2022-09-21T04:21:34.065Z,7
2022-09-21T04:22:33.917Z,7
2022-09-21T04:23:33.906Z,6.9
2022-09-21T04:24:33.902Z,6.9
2022-09-21T04:25:33.909Z,6.9
2022-09-21T04:26:33.906Z,6.9
2022-09-21T04:27:33.900Z,6.9
2022-09-21T04:28:33.994Z,6.9
2022-09-21T04:29:33.995Z,6.8
2022-09-21T04:30:37.515Z,6.8
2022-09-21T04:31:33.931Z,6.8
2022-09-21T04:32:33.956Z,6.9
2022-09-21T04:33:33.900Z,6.9
2022-09-21T04:34:33.902Z,6.9
2022-09-21T04:35:33.900Z,6.9
2022-09-21T04:36:36.610Z,6.9
2022-09-21T04:37:33.900Z,6.9
2022-09-21T04:38:33.903Z,6.8
2022-09-21T04:39:33.923Z,6.8
2022-09-21T04:40:34.116Z,6.8
2022-09-21T04:41:33.921Z,6.7
2022-09-21T04:42:33.907Z,6.7
2022-09-21T04:43:34.007Z,6.8
2022-09-21T04:44:33.946Z,6.7
2022-09-21T04:45:33.999Z,6.6
2022-09-21T04:46:33.960Z,6.5
2022-09-21T04:47:33.910Z,6.6
2022-09-21T04:48:33.909Z,6.5
2022-09-21T04:49:33.914Z,6.5
2022-09-21T04:50:33.900Z,6.5
2022-09-21T04:51:33.959Z,6.6
2022-09-21T04:52:33.942Z,6.5
2022-09-21T04:53:33.929Z,6.5
2022-09-21T04:54:33.918Z,6.5
2022-09-21T04:55:33.912Z,6.6
2022-09-21T04:56:33.909Z,6.6
2022-09-21T04:57:33.907Z,6.5
2022-09-21T04:58:34.012Z,6.5
2022-09-21T04:59:33.981Z,6.5
2022-09-21T05:00:33.950Z,6.5
2022-09-21T05:01:33.934Z,6.5
2022-09-21T05:02:33.905Z,6.5
2022-09-21T05:03:33.954Z,6.6
2022-09-21T05:04:33.918Z,6.6
2022-09-21T05:05:33.957Z,6.5
2022-09-21T05:06:33.903Z,6.5
2022-09-21T05:07:33.946Z,6.5
2022-09-21T05:08:34.004Z,6.5
2022-09-21T05:09:33.901Z,6.4
2022-09-21T05:10:33.920Z,6.5
2022-09-21T05:11:33.905Z,6.4
2022-09-21T05:12:33.900Z,6.5
2022-09-21T05:13:33.903Z,6.5
2022-09-21T05:14:33.914Z,6.5
2022-09-21T05:15:33.998Z,6.4
2022-09-21T05:16:33.908Z,6.3
2022-09-21T05:17:34.003Z,6.3
2022-09-21T05:18:33.909Z,6.3
2022-09-21T05:19:33.908Z,6.4
2022-09-21T05:20:33.897Z,6.3
2022-09-21T05:21:33.915Z,6.2
2022-09-21T05:22:34.087Z,6.2
2022-09-21T05:23:33.960Z,6.3
2022-09-21T05:24:33.897Z,6.2
2022-09-21T05:25:33.905Z,6.2
2022-09-21T05:26:33.916Z,6.3
2022-09-21T05:27:33.919Z,6.4
2022-09-21T05:28:39.099Z,6.4
2022-09-21T05:29:33.904Z,6.4
2022-09-21T05:30:34.021Z,6.5
2022-09-21T05:31:34.061Z,6.4
2022-09-21T05:32:33.920Z,6.5
2022-09-21T05:33:33.966Z,6.5
2022-09-21T05:34:36.639Z,6.5
2022-09-21T05:35:33.899Z,6.4
2022-09-21T05:36:33.955Z,6.4
2022-09-21T05:37:33.900Z,6.3
2022-09-21T05:38:33.975Z,6.3
2022-09-21T05:39:33.982Z,6.3
2022-09-21T05:40:33.973Z,6.3
2022-09-21T05:41:33.909Z,6.3
2022-09-21T05:42:33.929Z,6.3
2022-09-21T05:43:33.905Z,6.4
2022-09-21T05:44:33.912Z,6.4
2022-09-21T05:45:33.905Z,6.5
2022-09-21T05:46:33.951Z,6.5
2022-09-21T05:47:33.897Z,6.5
2022-09-21T05:48:33.918Z,6.5
2022-09-21T05:49:33.903Z,6.5
2022-09-21T05:50:33.949Z,6.5
2022-09-21T05:51:33.910Z,6.4
2022-09-21T05:52:33.917Z,6.4
2022-09-21T05:53:33.993Z,6.5
2022-09-21T05:54:33.971Z,6.6
2022-09-21T05:55:33.910Z,6.5
2022-09-21T05:56:33.915Z,6.5
2022-09-21T05:57:33.929Z,6.5
2022-09-21T05:58:33.917Z,6.5
2022-09-21T05:59:33.908Z,6.5
2022-09-21T06:00:33.901Z,6.6
2022-09-21T06:01:34.100Z,6.6
2022-09-21T06:02:33.991Z,6.7
2022-09-21T06:03:33.926Z,6.7
2022-09-21T06:04:33.960Z,6.7
2022-09-21T06:05:33.907Z,6.8
2022-09-21T06:06:33.902Z,6.8
2022-09-21T06:07:33.942Z,6.7
2022-09-21T06:08:33.905Z,6.8
2022-09-21T06:09:33.953Z,6.8
2022-09-21T06:10:33.985Z,6.8
2022-09-21T06:11:33.917Z,7
2022-09-21T06:12:33.905Z,6.9
2022-09-21T06:13:33.929Z,7
2022-09-21T06:14:33.912Z,7
2022-09-21T06:15:33.968Z,7
2022-09-21T06:16:34.004Z,7
2022-09-21T06:17:34.116Z,7
2022-09-21T06:18:34.200Z,7
2022-09-21T06:19:34.005Z,7
2022-09-21T06:20:34.215Z,7.1
2022-09-21T06:21:34.304Z,7.1
2022-09-21T06:22:33.900Z,7.2
2022-09-21T06:23:33.916Z,7.2
2022-09-21T06:24:33.927Z,7.2
2022-09-21T06:25:33.950Z,7.3
2022-09-21T06:26:33.915Z,7.3
2022-09-21T06:27:33.910Z,7.4
2022-09-21T06:28:33.892Z,7.5
2022-09-21T06:29:33.896Z,7.5
2022-09-21T06:30:33.924Z,7.4
2022-09-21T06:31:33.907Z,7.3
2022-09-21T06:32:33.963Z,7.4
2022-09-21T06:33:33.947Z,7.3
2022-09-21T06:34:33.926Z,7.3
2022-09-21T06:35:33.903Z,7.4
2022-09-21T06:36:33.919Z,7.5
2022-09-21T06:37:33.903Z,7.4
2022-09-21T06:38:33.890Z,7.6
2022-09-21T06:39:33.898Z,7.6
2022-09-21T06:40:34.009Z,7.8
2022-09-21T06:41:33.982Z,7.8
2022-09-21T06:42:33.906Z,7.8
2022-09-21T06:43:34.054Z,8
2022-09-21T06:44:33.915Z,8.1
2022-09-21T06:45:33.992Z,8.2
2022-09-21T06:46:33.963Z,8.3
2022-09-21T06:47:33.901Z,8.3
2022-09-21T06:48:33.961Z,8.3
2022-09-21T06:49:34.075Z,8.2
2022-09-21T06:50:33.920Z,8.3
2022-09-21T06:51:33.996Z,8.2
2022-09-21T06:52:33.906Z,8.3
2022-09-21T06:53:33.897Z,8.2
2022-09-21T06:54:33.989Z,8.3
2022-09-21T06:55:33.947Z,8.4
2022-09-21T06:56:33.955Z,8.4
2022-09-21T06:57:34.034Z,8.4
2022-09-21T06:58:33.935Z,8.5
2022-09-21T06:59:33.939Z,8.6
2022-09-21T07:00:33.922Z,8.6
2022-09-21T07:01:34.100Z,8.5
2022-09-21T07:02:33.904Z,8.7
2022-09-21T07:03:33.993Z,8.8
2022-09-21T07:04:33.948Z,8.8
2022-09-21T07:05:33.911Z,8.7
2022-09-21T07:06:33.913Z,8.7
2022-09-21T07:07:33.922Z,8.8
2022-09-21T07:10:33.920Z,8.8
2022-09-21T07:11:33.913Z,8.8
2022-09-21T07:12:33.957Z,8.8
2022-09-21T07:13:33.910Z,8.9
2022-09-21T07:14:33.930Z,9
2022-09-21T07:15:33.904Z,9
2022-09-21T07:16:33.929Z,9.2
2022-09-21T07:17:33.906Z,9.3
2022-09-21T07:18:42.690Z,9.3
2022-09-21T07:19:33.967Z,9.3
2022-09-21T07:20:33.955Z,9.2
2022-09-21T07:21:33.902Z,9.4
2022-09-21T07:22:33.903Z,9.4
2022-09-21T07:23:33.917Z,9.6
2022-09-21T07:24:34.000Z,9.4
2022-09-21T07:25:33.895Z,9.4
2022-09-21T07:26:33.985Z,9.5
2022-09-21T07:27:34.011Z,9.4
2022-09-21T07:28:34.004Z,9.4
2022-09-21T07:29:33.917Z,9.4
2022-09-21T07:30:33.909Z,9.3
2022-09-21T07:31:34.015Z,9.3
2022-09-21T07:32:33.920Z,9.2
2022-09-21T07:33:36.170Z,9.2
2022-09-21T07:34:33.912Z,9.4
2022-09-21T07:35:33.957Z,9.4
2022-09-21T07:36:34.080Z,9.4
2022-09-21T07:37:33.899Z,9.4
2022-09-21T07:38:33.891Z,9.4
2022-09-21T07:39:33.931Z,9.5
2022-09-21T07:40:33.955Z,9.6
2022-09-21T07:41:33.903Z,9.7
2022-09-21T07:42:33.901Z,9.8
2022-09-21T07:43:33.959Z,9.9
2022-09-21T07:44:33.903Z,9.9
2022-09-21T07:45:33.962Z,10.1
2022-09-21T07:46:33.926Z,10.1
2022-09-21T07:47:33.968Z,10.2
2022-09-21T07:48:33.894Z,10
2022-09-21T07:49:33.908Z,10.1
2022-09-21T07:50:33.956Z,10.1
2022-09-21T07:51:33.950Z,10
2022-09-21T07:52:33.903Z,9.9
2022-09-21T07:53:33.918Z,9.9
2022-09-21T07:54:33.980Z,10.1
2022-09-21T07:55:33.922Z,10.2
2022-09-21T07:56:33.906Z,10.2
2022-09-21T07:57:33.938Z,10
2022-09-21T07:58:33.964Z,10
2022-09-21T07:59:33.984Z,10.1
2022-09-21T08:00:33.935Z,10
2022-09-21T08:01:33.966Z,9.9
2022-09-21T08:02:34.052Z,10
2022-09-21T08:03:33.893Z,9.9
2022-09-21T08:04:33.944Z,10
2022-09-21T08:05:33.907Z,10.3
2022-09-21T08:06:33.951Z,10.4
2022-09-21T08:07:33.988Z,10.4
2022-09-21T08:08:34.070Z,10.6
2022-09-21T08:09:33.977Z,10.5
2022-09-21T08:10:33.909Z,10.6
2022-09-21T08:11:33.899Z,10.6
2022-09-21T08:12:33.995Z,10.8
2022-09-21T08:13:33.916Z,10.7
2022-09-21T08:14:33.948Z,10.7
2022-09-21T08:15:50.449Z,10.7
2022-09-21T08:16:34.215Z,10.7
2022-09-21T08:17:33.949Z,10.8
2022-09-21T08:18:33.896Z,10.9
2022-09-21T08:19:33.904Z,10.8
2022-09-21T08:20:33.952Z,10.9
2022-09-21T08:21:33.900Z,10.8
2022-09-21T08:22:33.972Z,10.7
2022-09-21T08:23:33.970Z,10.7
2022-09-21T08:24:33.905Z,10.8
2022-09-21T08:25:33.973Z,10.9
2022-09-21T08:26:34.014Z,10.8
2022-09-21T08:27:33.920Z,10.8
2022-09-21T08:28:33.927Z,10.8
2022-09-21T08:29:34.001Z,10.9
2022-09-21T08:30:33.951Z,11.1
2022-09-21T08:31:34.128Z,11.2
2022-09-21T08:32:50.567Z,11.2
2022-09-21T08:33:33.909Z,11.3
2022-09-21T08:34:33.910Z,11.4
2022-09-21T08:35:33.940Z,11.4
2022-09-21T08:36:33.958Z,11.4
2022-09-21T08:37:33.943Z,11.3
2022-09-21T08:38:33.995Z,11.4
2022-09-21T08:39:33.968Z,11.5
2022-09-21T08:40:34.028Z,11.6
2022-09-21T08:41:33.903Z,11.7
2022-09-21T08:42:33.901Z,11.8
2022-09-21T08:43:33.972Z,11.8
2022-09-21T08:44:33.909Z,11.8
2022-09-21T08:45:33.945Z,11.9
2022-09-21T08:46:34.127Z,12
2022-09-21T08:47:33.906Z,11.8
2022-09-21T08:48:36.782Z,11.9
2022-09-21T08:49:33.907Z,12
2022-09-21T08:50:33.902Z,12.1
2022-09-21T08:51:33.904Z,12.2
2022-09-21T08:52:33.901Z,12.3
2022-09-21T08:53:33.953Z,12.2
2022-09-21T08:54:33.917Z,12.1
2022-09-21T08:55:33.901Z,12.1
2022-09-21T08:57:00.501Z,12.3
2022-09-21T08:57:33.978Z,12.2
2022-09-21T08:58:33.991Z,12.3
2022-09-21T08:59:33.926Z,12.4
2022-09-21T09:00:33.941Z,12.5
2022-09-21T09:01:34.030Z,12.6
2022-09-21T09:02:33.911Z,12.7
2022-09-21T09:03:33.910Z,12.9
2022-09-21T09:04:33.925Z,13
2022-09-21T09:05:33.930Z,13
2022-09-21T09:06:33.912Z,13
2022-09-21T09:07:33.915Z,13.1
2022-09-21T09:08:33.989Z,13.1
2022-09-21T09:09:34.064Z,13.2
2022-09-21T09:10:33.965Z,13.3
2022-09-21T09:11:33.912Z,13.4
2022-09-21T09:12:33.902Z,13.5
2022-09-21T09:13:33.903Z,13.5
2022-09-21T09:14:34.010Z,13.4
2022-09-21T09:15:33.988Z,13.5
2022-09-21T09:16:34.064Z,13.4
2022-09-21T09:17:33.958Z,13.3
2022-09-21T09:18:33.904Z,13.3
2022-09-21T09:19:33.967Z,13.4
2022-09-21T09:20:33.905Z,13.6
2022-09-21T09:21:33.897Z,13.7
2022-09-21T09:22:33.912Z,13.8
2022-09-21T09:23:33.905Z,14
2022-09-21T09:24:33.957Z,14
2022-09-21T09:25:34.054Z,14.1
2022-09-21T09:26:33.924Z,14.2
2022-09-21T09:27:33.915Z,14.3
2022-09-21T09:28:33.975Z,14.3
2022-09-21T09:29:33.905Z,14
2022-09-21T09:30:33.932Z,14
2022-09-21T09:31:33.976Z,14.2
2022-09-21T09:32:33.969Z,14
2022-09-21T09:33:33.991Z,14.1
2022-09-21T09:34:34.012Z,14.2
2022-09-21T09:35:33.915Z,14.1
2022-09-21T09:36:56.745Z,14.3
2022-09-21T09:37:33.902Z,14.5
2022-09-21T09:38:33.908Z,14.6
2022-09-21T09:39:33.918Z,14.5
2022-09-21T09:40:34.000Z,14.3
2022-09-21T09:41:33.952Z,14.5
2022-09-21T09:42:33.914Z,14.7
2022-09-21T09:43:33.905Z,14.6
2022-09-21T09:44:33.915Z,14.8
2022-09-21T09:45:33.984Z,14.9
2022-09-21T09:46:34.024Z,15
2022-09-21T09:47:34.004Z,15.1
2022-09-21T09:48:33.944Z,15
2022-09-21T09:49:34.004Z,15.1
2022-09-21T09:50:34.004Z,15.2
2022-09-21T09:51:33.905Z,14.7
2022-09-21T09:52:33.914Z,15.2
2022-09-21T09:53:33.931Z,15.3
2022-09-21T09:54:33.920Z,15.2
2022-09-21T09:55:34.044Z,15.2
2022-09-21T09:56:34.050Z,14.8
2022-09-21T09:57:33.921Z,15.4
2022-09-21T09:58:34.057Z,15.2
2022-09-21T09:59:33.959Z,14.8
2022-09-21T10:00:33.925Z,14
2022-09-21T10:01:34.013Z,13.5
2022-09-21T10:02:33.910Z,12.5
2022-09-21T10:03:33.964Z,13
2022-09-21T10:04:34.031Z,13.9
2022-09-21T10:05:33.953Z,14.4
2022-09-21T10:06:33.966Z,12.6
2022-09-21T10:07:34.052Z,12.4
2022-09-21T10:08:33.912Z,13.9
2022-09-21T10:09:33.913Z,12.2
2022-09-21T10:10:33.927Z,11.5
2022-09-21T10:11:34.008Z,13
2022-09-21T10:12:33.997Z,13.5
2022-09-21T10:13:33.953Z,14.1
2022-09-21T10:14:33.922Z,13.8
2022-09-21T10:15:34.059Z,13.2
2022-09-21T10:16:34.010Z,12.8
2022-09-21T10:17:33.917Z,13.4
2022-09-21T10:18:33.960Z,13
2022-09-21T10:19:33.959Z,13.8
2022-09-21T10:20:33.903Z,14.6
2022-09-21T10:21:33.913Z,13.5
2022-09-21T10:22:33.925Z,13.7
2022-09-21T10:23:33.993Z,14.1
2022-09-21T10:24:34.036Z,13.8
2022-09-21T10:25:38.043Z,13.3
2022-09-21T10:26:34.049Z,13.7
2022-09-21T10:27:33.968Z,14.1
2022-09-21T10:28:34.001Z,13.8
2022-09-21T10:29:33.960Z,13.7
2022-09-21T10:30:33.915Z,13
2022-09-21T10:31:33.978Z,13
2022-09-21T10:32:33.961Z,13.1
2022-09-21T10:33:33.918Z,12.6
2022-09-21T10:34:33.962Z,13.6
2022-09-21T10:35:34.161Z,12.8
2022-09-21T10:36:33.924Z,12.4
2022-09-21T10:37:34.014Z,13
2022-09-21T10:38:33.923Z,13.9
2022-09-21T10:39:33.915Z,12.9
2022-09-21T10:40:34.080Z,14.1
2022-09-21T10:41:33.921Z,12
2022-09-21T10:42:34.050Z,13.1
2022-09-21T10:43:35.932Z,13.2
2022-09-21T10:44:33.980Z,12.9
2022-09-21T10:45:33.926Z,11.6
2022-09-21T10:46:34.045Z,12.3
2022-09-21T10:47:33.919Z,13
2022-09-21T10:48:33.918Z,12.5
2022-09-21T10:49:33.984Z,12.5
2022-09-21T10:50:33.980Z,13.3
2022-09-21T10:51:33.984Z,12
2022-09-21T10:52:33.918Z,12.3
2022-09-21T10:53:33.919Z,11.6
2022-09-21T10:54:34.039Z,11.4
2022-09-21T10:55:34.029Z,13
2022-09-21T10:56:33.928Z,12.7
2022-09-21T10:57:33.923Z,10.2
2022-09-21T10:58:33.956Z,9.9
2022-09-21T10:59:33.922Z,9.9
2022-09-21T11:00:33.917Z,10.4
2022-09-21T11:01:34.002Z,10.3
2022-09-21T11:02:34.005Z,10.3
2022-09-21T11:03:33.941Z,10.4
2022-09-21T11:04:33.919Z,10.6
2022-09-21T11:05:33.981Z,11.7
2022-09-21T11:06:33.967Z,10.3
2022-09-21T11:07:33.931Z,9.7
2022-09-21T11:08:33.975Z,9.8
2022-09-21T11:09:33.944Z,9.8
2022-09-21T11:10:34.639Z,9.8
2022-09-21T11:11:33.913Z,9.9
2022-09-21T11:12:33.936Z,10
2022-09-21T11:13:33.967Z,11.1
2022-09-21T11:14:34.032Z,11.4
2022-09-21T11:15:34.093Z,11.1
2022-09-21T11:16:33.917Z,11.8
2022-09-21T11:17:33.925Z,11.9
2022-09-21T11:18:33.925Z,11.2
2022-09-21T11:19:33.976Z,11.4
2022-09-21T11:20:33.914Z,10.8
2022-09-21T11:21:33.977Z,12.8
2022-09-21T11:22:34.000Z,11.5
2022-09-21T11:23:33.951Z,10.6
2022-09-21T11:24:33.936Z,9.9
2022-09-21T11:25:33.921Z,9.8
2022-09-21T11:26:34.020Z,9.8
2022-09-21T11:27:33.929Z,9.4
2022-09-21T11:28:33.920Z,9.7
2022-09-21T11:29:33.976Z,10.2
2022-09-21T11:30:34.100Z,10.6
2022-09-21T11:31:33.928Z,10.7
2022-09-21T11:32:33.923Z,10.9
2022-09-21T11:33:33.988Z,11
2022-09-21T11:34:33.957Z,10.5
2022-09-21T11:35:33.924Z,10.7
2022-09-21T11:36:33.976Z,10.6
2022-09-21T11:37:33.972Z,10.2
2022-09-21T11:38:34.613Z,9.7
2022-09-21T11:39:34.011Z,9.1
2022-09-21T11:40:34.035Z,9.9
2022-09-21T11:41:33.917Z,9.9
2022-09-21T11:42:34.018Z,9.2
2022-09-21T11:43:34.142Z,10.1
2022-09-21T11:44:34.003Z,9.7
2022-09-21T11:45:34.032Z,10.4
2022-09-21T11:46:33.975Z,11.2
2022-09-21T11:47:33.922Z,10.6
2022-09-21T11:48:33.939Z,10.1
2022-09-21T11:49:33.927Z,8.8
2022-09-21T11:50:33.984Z,8.9
2022-09-21T11:51:33.975Z,8.9
2022-09-21T11:52:34.080Z,8.4
2022-09-21T11:53:34.012Z,8.2
2022-09-21T11:54:33.930Z,9.8
2022-09-21T11:55:33.927Z,8.7
2022-09-21T11:56:33.924Z,8.8
2022-09-21T11:57:33.932Z,8.8
2022-09-21T11:58:33.969Z,8.9
2022-09-21T11:59:33.998Z,9.7
2022-09-21T12:00:33.999Z,9.8
2022-09-21T12:01:34.010Z,10.3
2022-09-21T12:02:34.249Z,9.6
2022-09-21T12:03:33.939Z,9.1
2022-09-21T12:04:33.974Z,9
2022-09-21T12:05:33.986Z,8.7
2022-09-21T12:06:33.930Z,8.8
2022-09-21T12:07:33.933Z,8.8
2022-09-21T12:08:33.983Z,8.7
2022-09-21T12:09:33.953Z,8.9
2022-09-21T12:10:33.933Z,8.6
2022-09-21T12:11:34.002Z,9.2
2022-09-21T12:12:33.983Z,9.1
2022-09-21T12:13:33.922Z,9.5
2022-09-21T12:14:34.076Z,9.6
2022-09-21T12:15:34.004Z,9.2
2022-09-21T12:16:34.079Z,9.2
2022-09-21T12:17:33.942Z,9.6
2022-09-21T12:18:34.048Z,9.6
2022-09-21T12:19:33.976Z,9.2
2022-09-21T12:20:33.937Z,8.9
2022-09-21T12:21:33.934Z,9.2
2022-09-21T12:22:33.926Z,8.8
2022-09-21T12:23:33.984Z,8.7
2022-09-21T12:24:34.072Z,8.9
2022-09-21T12:25:33.932Z,7.6
2022-09-21T12:26:34.082Z,7.4
2022-09-21T12:27:34.001Z,7.3
2022-09-21T12:28:33.924Z,7.1
2022-09-21T12:29:33.973Z,6.8
2022-09-21T12:30:34.001Z,7.4
2022-09-21T12:31:34.023Z,7.8
2022-09-21T12:32:34.104Z,7.7
2022-09-21T12:33:34.061Z,8.5
2022-09-21T12:34:34.020Z,9.1
2022-09-21T12:35:34.094Z,8.1
2022-09-21T12:36:35.986Z,10.1
2022-09-21T12:37:34.103Z,10.9
2022-09-21T12:38:34.113Z,9.6
2022-09-21T12:39:34.205Z,9.1
2022-09-21T12:40:34.352Z,9.3
2022-09-21T12:41:34.062Z,8.9
2022-09-21T12:42:34.185Z,9.3
2022-09-21T12:43:34.285Z,9.5
2022-09-21T12:44:34.283Z,10
2022-09-21T12:45:33.935Z,9.6
2022-09-21T12:46:34.013Z,9.6
2022-09-21T12:47:33.988Z,9.3
2022-09-21T12:48:33.957Z,9.7
2022-09-21T12:49:33.936Z,9.2
2022-09-21T12:50:34.052Z,9.3
2022-09-21T12:51:33.940Z,9.2
2022-09-21T12:52:33.944Z,9
2022-09-21T12:53:33.932Z,8.9
2022-09-21T12:54:34.000Z,8.6
2022-09-21T12:55:34.071Z,8.2
2022-09-21T12:56:33.973Z,8.3
2022-09-21T12:58:10.907Z,7.9
2022-09-21T12:58:33.958Z,8.2
2022-09-21T12:59:34.018Z,8.3
2022-09-21T13:00:34.007Z,9.7
2022-09-21T13:01:34.113Z,8.1
2022-09-21T13:02:34.230Z,7.9
2022-09-21T13:03:34.025Z,8.1
2022-09-21T13:04:34.075Z,8.6
2022-09-21T13:05:33.945Z,8.8
2022-09-21T13:06:33.947Z,8.8
2022-09-21T13:07:33.972Z,8.5
2022-09-21T13:08:34.009Z,8
2022-09-21T13:09:34.120Z,8.2
2022-09-21T13:10:34.001Z,8.1
2022-09-21T13:11:34.028Z,8.7
2022-09-21T13:12:33.947Z,8.9
2022-09-21T13:13:33.958Z,8.4
2022-09-21T13:14:34.131Z,8.8
2022-09-21T13:15:33.960Z,8.8
2022-09-21T13:16:34.009Z,9.4
2022-09-21T13:17:33.957Z,9.1
2022-09-21T13:18:36.406Z,9.3
2022-09-21T13:19:34.124Z,8.7
2022-09-21T13:20:33.952Z,8.6
2022-09-21T13:21:33.946Z,8.6
2022-09-21T13:22:33.953Z,8.5
2022-09-21T13:23:33.959Z,7.9
2022-09-21T13:24:33.999Z,8.4
2022-09-21T13:25:34.022Z,8.3
2022-09-21T13:26:33.994Z,8.2
2022-09-21T13:27:33.960Z,7.8
2022-09-21T13:28:33.985Z,7.2
2022-09-21T13:29:34.022Z,7.6
2022-09-21T13:30:33.950Z,7.2
2022-09-21T13:31:40.731Z,7.4
2022-09-21T13:32:34.007Z,7.4
2022-09-21T13:33:33.993Z,7.7
2022-09-21T13:34:34.127Z,7.4
2022-09-21T13:35:33.948Z,8.4
2022-09-21T13:36:34.056Z,8
2022-09-21T13:37:34.049Z,8.6
2022-09-21T13:38:33.994Z,8.5
2022-09-21T13:39:34.126Z,8.2
2022-09-21T13:40:33.991Z,7.9
2022-09-21T13:41:58.990Z,8.5
2022-09-21T13:42:34.040Z,8.7
2022-09-21T13:43:37.004Z,8.1
2022-09-21T13:44:33.991Z,7.9
2022-09-21T13:45:34.004Z,8.1
2022-09-21T13:46:33.982Z,7.9